Latest Weather Observations for South Channel Island

IDV60801

Issued at 7:35 am EST Friday 25 April 2014 (issued every 30 minutes, with the page automatically refreshed every 10 minutes)

About weather observations | Map of weather stations | Latest weather observations for VIC | Other Formats
Station Details ID: 086344 Name: SOUTH CHANNEL ISLAND Lat: -38.31 Lon: 144.80 Height: 9.0 m
Data from the previous 72 hours. | See also: Recent months for locations in Victoria
Date/Time
EST
Temp
°C
App
Temp
°C
Dew
Point
Rel
Hum
%
Delta-T
°C
Wind Press
QNH
hPa
Press
MSL
hPa
Rain
since 9 am
mm
Dir
 
Spd
km/h
Gust
km/h
Spd
kts
Gust
kts
25/07:30am - - - - - ENE 22 28 12 15 - - -
25/07:00am - - - - - ENE 24 28 13 15 - - -
25/06:30am - - - - - ENE 19 22 10 12 - - -
25/06:00am - - - - - ENE 17 20 9 11 - - -
25/05:30am - - - - - E 17 19 9 10 - - -
25/05:00am - - - - - E 19 22 10 12 - - -
25/04:30am - - - - - ENE 15 20 8 11 - - -
25/04:00am - - - - - ENE 9 15 5 8 - - -
25/03:30am - - - - - SSE 4 9 2 5 - - -
25/03:00am - - - - - SE 11 13 6 7 - - -
25/02:30am - - - - - SE 13 17 7 9 - - -
25/02:00am - - - - - SSE 13 17 7 9 - - -
25/01:30am - - - - - E 9 11 5 6 - - -
25/01:00am - - - - - NNE 6 9 3 5 - - -
25/12:30am - - - - - SE 9 13 5 7 - - -
25/12:00am - - - - - SE 7 11 4 6 - - -
 
Date/Time
EST
Temp
°C
App
Temp
°C
Dew
Point
Rel
Hum
%
Delta-T
°C
Wind Press
QNH
hPa
Press
MSL
hPa
Rain
since 9 am
mm
Dir
 
Spd
km/h
Gust
km/h
Spd
kts
Gust
kts
24/11:30pm - - - - - SSE 11 15 6 8 - - -
24/11:00pm - - - - - S 17 20 9 11 - - -
24/10:30pm - - - - - SSW 15 19 8 10 - - -
24/10:00pm - - - - - S 17 20 9 11 - - -
24/09:30pm - - - - - S 17 24 9 13 - - -
24/09:00pm - - - - - S 20 26 11 14 - - -
24/08:30pm - - - - - SSW 20 26 11 14 - - -
24/08:00pm - - - - - SSW 20 26 11 14 - - -
24/07:30pm - - - - - SSW 28 33 15 18 - - -
24/07:00pm - - - - - SSW 26 30 14 16 - - -
24/06:30pm - - - - - SSW 30 35 16 19 - - -
24/06:00pm - - - - - SSW 30 35 16 19 - - -
24/05:30pm - - - - - SW 32 35 17 19 - - -
24/05:00pm - - - - - SSW 33 39 18 21 - - -
24/04:30pm - - - - - SSW 33 39 18 21 - - -
24/04:00pm - - - - - SSW 37 43 20 23 - - -
24/03:30pm - - - - - SSW 35 44 19 24 - - -
24/03:00pm - - - - - SW 35 44 19 24 - - -
24/02:30pm - - - - - SW 37 46 20 25 - - -
24/02:00pm - - - - - SW 41 48 22 26 - - -
24/01:30pm - - - - - WSW 33 46 18 25 - - -
24/01:00pm - - - - - SW 35 52 19 28 - - -
24/12:30pm - - - - - WSW 35 41 19 22 - - -
24/12:00pm - - - - - WSW 39 50 21 27 - - -
24/11:30am - - - - - SW 41 52 22 28 - - -
24/11:00am - - - - - WSW 44 56 24 30 - - -
24/10:30am - - - - - SW 52 61 28 33 - - -
24/10:00am - - - - - WSW 56 67 30 36 - - -
24/09:30am - - - - - WSW 52 61 28 33 - - -
24/09:00am - - - - - WSW 52 63 28 34 - - -
24/08:56am - - - - - WSW 57 63 31 34 - - -
24/08:30am - - - - - WSW 39 48 21 26 - - -
24/08:00am - - - - - W 30 33 16 18 - - -
24/07:30am - - - - - W 48 57 26 31 - - -
24/07:00am - - - - - WNW 46 57 25 31 - - -
24/06:48am - - - - - WNW 48 70 26 38 - - -
24/06:30am - - - - - NW 43 56 23 30 - - -
24/06:00am - - - - - NW 39 48 21 26 - - -
24/05:30am - - - - - NNW 43 52 23 28 - - -
24/05:00am - - - - - NNW 33 39 18 21 - - -
24/04:30am - - - - - NNW 39 46 21 25 - - -
24/04:00am - - - - - NNW 41 48 22 26 - - -
24/03:30am - - - - - NNW 43 48 23 26 - - -
24/03:00am - - - - - NNW 35 41 19 22 - - -
24/02:30am - - - - - NNW 32 35 17 19 - - -
24/02:00am - - - - - NNW 33 37 18 20 - - -
24/01:30am - - - - - N 33 39 18 21 - - -
24/01:00am - - - - - NNW 41 46 22 25 - - -
24/12:30am - - - - - N 37 43 20 23 - - -
24/12:00am - - - - - N 33 37 18 20 - - -
 
Date/Time
EST
Temp
°C
App
Temp
°C
Dew
Point
Rel
Hum
%
Delta-T
°C
Wind Press
QNH
hPa
Press
MSL
hPa
Rain
since 9 am
mm
Dir
 
Spd
km/h
Gust
km/h
Spd
kts
Gust
kts
23/11:30pm - - - - - NNW 33 39 18 21 - - -
23/11:00pm - - - - - NNW 33 37 18 20 - - -
23/10:30pm - - - - - N 30 33 16 18 - - -
23/10:00pm - - - - - N 26 30 14 16 - - -
23/09:30pm - - - - - N 24 26 13 14 - - -
23/09:00pm - - - - - N 19 20 10 11 - - -
23/08:30pm - - - - - N 15 17 8 9 - - -
23/08:00pm - - - - - N 11 13 6 7 - - -
23/07:30pm - - - - - N 11 13 6 7 - - -
23/07:00pm - - - - - N 11 13 6 7 - - -
23/06:30pm - - - - - N 11 13 6 7 - - -
23/06:00pm - - - - - NNE 13 15 7 8 - - -
23/05:30pm - - - - - NNE 15 17 8 9 - - -
23/05:00pm - - - - - NE 15 17 8 9 - - -
23/04:30pm - - - - - NNW 7 9 4 5 - - -
23/04:00pm - - - - - W 11 15 6 8 - - -
23/03:30pm - - - - - W 11 13 6 7 - - -
23/03:00pm - - - - - WNW 13 17 7 9 - - -
23/02:30pm - - - - - NW 15 19 8 10 - - -
23/02:00pm - - - - - NNW 15 19 8 10 - - -
23/01:30pm - - - - - NNW 17 20 9 11 - - -
23/01:00pm - - - - - NW 20 24 11 13 - - -
23/12:30pm - - - - - NW 20 24 11 13 - - -
23/12:00pm - - - - - NW 13 17 7 9 - - -
23/11:30am - - - - - WNW 13 15 7 8 - - -
23/11:00am - - - - - WNW 15 19 8 10 - - -
23/10:30am - - - - - W 17 19 9 10 - - -
23/10:00am - - - - - W 20 22 11 12 - - -
23/09:30am - - - - - W 20 24 11 13 - - -
23/09:00am - - - - - W 20 24 11 13 - - -
23/08:30am - - - - - W 15 17 8 9 - - -
23/08:00am - - - - - W 20 22 11 12 - - -
23/07:30am - - - - - W 20 22 11 12 - - -
23/07:00am - - - - - W 19 20 10 11 - - -
23/06:30am - - - - - W 19 20 10 11 - - -
23/06:00am - - - - - W 17 19 9 10 - - -
23/05:30am - - - - - W 15 17 8 9 - - -
23/05:00am - - - - - W 15 17 8 9 - - -
23/04:30am - - - - - W 15 17 8 9 - - -
23/04:00am - - - - - W 17 19 9 10 - - -
23/03:30am - - - - - W 17 19 9 10 - - -
23/03:00am - - - - - W 15 17 8 9 - - -
23/02:30am - - - - - SW 9 11 5 6 - - -
23/02:00am - - - - - SW 9 11 5 6 - - -
23/01:30am - - - - - W 13 15 7 8 - - -
23/01:00am - - - - - SSW 2 7 1 4 - - -
23/12:30am - - - - - SE 2 7 1 4 - - -
23/12:00am - - - - - SE 7 9 4 5 - - -
 
Date/Time
EST
Temp
°C
App
Temp
°C
Dew
Point
Rel
Hum
%
Delta-T
°C
Wind Press
QNH
hPa
Press
MSL
hPa
Rain
since 9 am
mm
Dir
 
Spd
km/h
Gust
km/h
Spd
kts
Gust
kts
22/11:30pm - - - - - S 9 13 5 7 - - -
22/11:00pm - - - - - SW 13 15 7 8 - - -
22/10:30pm - - - - - SSW 13 15 7 8 - - -
22/10:00pm - - - - - SSW 13 15 7 8 - - -
22/09:30pm - - - - - SW 13 17 7 9 - - -
22/09:00pm - - - - - SSW 15 17 8 9 - - -
22/08:30pm - - - - - SSW 17 19 9 10 - - -
22/08:00pm - - - - - S 17 19 9 10 - - -
22/07:30pm - - - - - S 24 26 13 14 - - -
22/07:00pm - - - - - SSW 24 28 13 15 - - -
22/06:30pm - - - - - SSW 26 30 14 16 - - -
22/06:00pm - - - - - SSW 26 30 14 16 - - -
22/05:30pm - - - - - SSW 26 32 14 17 - - -
22/05:00pm - - - - - SSW 24 28 13 15 - - -
22/04:30pm - - - - - SSW 28 32 15 17 - - -
22/04:00pm - - - - - SSW 30 33 16 18 - - -
22/03:30pm - - - - - SSW 26 32 14 17 - - -
22/03:00pm - - - - - SSW 26 30 14 16 - - -
22/02:30pm - - - - - SSW 26 33 14 18 - - -
22/02:00pm - - - - - SW 30 37 16 20 - - -
22/01:30pm - - - - - NNW 20 24 11 13 - - -
22/01:00pm - - - - - NNW 26 30 14 16 - - -
22/12:30pm - - - - - N 33 37 18 20 - - -
22/12:00pm - - - - - N 35 39 19 21 - - -
22/11:30am - - - - - N 37 43 20 23 - - -
22/11:00am - - - - - N 37 43 20 23 - - -
22/10:30am - - - - - N 44 50 24 27 - - -
22/10:00am - - - - - N 43 50 23 27 - - -
22/09:30am - - - - - N 48 54 26 29 - - -
22/09:00am - - - - - N 50 56 27 30 - - -
22/08:30am - - - - - N 50 57 27 31 - - -
22/08:00am - - - - - N 44 50 24 27 - - -

Other Formats:

Comma delimited format used in spreadsheet applications
http://www.bom.gov.au/fwo/IDV60801/IDV60801.94853.axf

JavaScript Object Notation format (JSON) in row-major order
http://www.bom.gov.au/fwo/IDV60801/IDV60801.94853.json